sensor_id;sensor_type;location;lat;lon;timestamp;temperature;humidity
22173;DHT22;11252;50.596;17.648;2023-02-28T00:01:28;-0.50;92.20
22173;DHT22;11252;50.596;17.648;2023-02-28T00:03:55;-0.40;92.20
22173;DHT22;11252;50.596;17.648;2023-02-28T00:06:23;-0.40;92.20
22173;DHT22;11252;50.596;17.648;2023-02-28T00:08:51;-0.40;92.20
22173;DHT22;11252;50.596;17.648;2023-02-28T00:11:18;-0.40;92.20
22173;DHT22;11252;50.596;17.648;2023-02-28T00:13:47;-0.40;92.20
22173;DHT22;11252;50.596;17.648;2023-02-28T00:16:18;-0.40;92.20
22173;DHT22;11252;50.596;17.648;2023-02-28T00:18:46;-0.40;92.20
22173;DHT22;11252;50.596;17.648;2023-02-28T00:21:16;-0.40;92.20
22173;DHT22;11252;50.596;17.648;2023-02-28T00:23:43;-0.50;92.20
22173;DHT22;11252;50.596;17.648;2023-02-28T00:26:11;-0.50;92.20
22173;DHT22;11252;50.596;17.648;2023-02-28T00:28:38;-0.50;92.20
22173;DHT22;11252;50.596;17.648;2023-02-28T00:31:06;-0.50;92.20
22173;DHT22;11252;50.596;17.648;2023-02-28T00:33:33;-0.50;92.20
22173;DHT22;11252;50.596;17.648;2023-02-28T00:36:09;-0.60;92.20
22173;DHT22;11252;50.596;17.648;2023-02-28T00:38:38;-0.60;92.20
22173;DHT22;11252;50.596;17.648;2023-02-28T00:41:06;-0.70;92.20
22173;DHT22;11252;50.596;17.648;2023-02-28T00:43:36;-0.70;92.20
22173;DHT22;11252;50.596;17.648;2023-02-28T00:46:04;-0.70;92.20
22173;DHT22;11252;50.596;17.648;2023-02-28T00:48:32;-0.70;92.20
22173;DHT22;11252;50.596;17.648;2023-02-28T00:51:00;-0.70;92.20
22173;DHT22;11252;50.596;17.648;2023-02-28T00:53:27;-0.70;92.20
22173;DHT22;11252;50.596;17.648;2023-02-28T00:55:55;-0.80;92.20
22173;DHT22;11252;50.596;17.648;2023-02-28T00:58:22;-0.90;92.20
22173;DHT22;11252;50.596;17.648;2023-02-28T01:00:51;-0.90;92.20
22173;DHT22;11252;50.596;17.648;2023-02-28T01:03:20;-0.80;92.20
22173;DHT22;11252;50.596;17.648;2023-02-28T01:05:48;-0.90;92.20
22173;DHT22;11252;50.596;17.648;2023-02-28T01:08:15;-1.00;92.20
22173;DHT22;11252;50.596;17.648;2023-02-28T01:10:42;-1.00;92.20
22173;DHT22;11252;50.596;17.648;2023-02-28T01:13:11;-1.10;92.20
22173;DHT22;11252;50.596;17.648;2023-02-28T01:15:41;-1.10;92.20
22173;DHT22;11252;50.596;17.648;2023-02-28T01:18:10;-1.20;92.20
22173;DHT22;11252;50.596;17.648;2023-02-28T01:20:38;-1.20;92.20
22173;DHT22;11252;50.596;17.648;2023-02-28T01:23:05;-1.30;92.20
22173;DHT22;11252;50.596;17.648;2023-02-28T01:25:34;-1.30;92.20
22173;DHT22;11252;50.596;17.648;2023-02-28T01:28:02;-1.40;92.20
22173;DHT22;11252;50.596;17.648;2023-02-28T01:30:31;-1.40;92.20
22173;DHT22;11252;50.596;17.648;2023-02-28T01:32:59;-1.50;92.20
22173;DHT22;11252;50.596;17.648;2023-02-28T01:35:27;-1.60;92.20
22173;DHT22;11252;50.596;17.648;2023-02-28T01:37:54;-1.60;92.20
22173;DHT22;11252;50.596;17.648;2023-02-28T01:40:27;-1.70;92.20
22173;DHT22;11252;50.596;17.648;2023-02-28T01:42:54;-1.80;92.20
22173;DHT22;11252;50.596;17.648;2023-02-28T01:45:31;-1.80;92.20
22173;DHT22;11252;50.596;17.648;2023-02-28T01:48:07;-1.80;92.20
22173;DHT22;11252;50.596;17.648;2023-02-28T01:50:39;-1.90;92.20
22173;DHT22;11252;50.596;17.648;2023-02-28T01:53:12;-1.90;92.20
22173;DHT22;11252;50.596;17.648;2023-02-28T01:55:42;-2.00;92.20
22173;DHT22;11252;50.596;17.648;2023-02-28T01:58:11;-2.00;92.20
22173;DHT22;11252;50.596;17.648;2023-02-28T02:00:39;-2.10;92.20
22173;DHT22;11252;50.596;17.648;2023-02-28T02:03:12;-2.10;92.20
22173;DHT22;11252;50.596;17.648;2023-02-28T02:05:43;-2.10;92.20
22173;DHT22;11252;50.596;17.648;2023-02-28T02:08:21;-2.20;92.20
22173;DHT22;11252;50.596;17.648;2023-02-28T02:10:54;-2.30;92.20
22173;DHT22;11252;50.596;17.648;2023-02-28T02:18:32;-2.30;92.20
22173;DHT22;11252;50.596;17.648;2023-02-28T02:24:11;-2.40;92.20
22173;DHT22;11252;50.596;17.648;2023-02-28T02:27:04;-2.50;92.20
22173;DHT22;11252;50.596;17.648;2023-02-28T02:29:47;-2.50;92.20
22173;DHT22;11252;50.596;17.648;2023-02-28T02:32:29;-2.60;92.20
22173;DHT22;11252;50.596;17.648;2023-02-28T02:35:16;-2.60;92.20
22173;DHT22;11252;50.596;17.648;2023-02-28T02:37:55;-2.70;92.20
22173;DHT22;11252;50.596;17.648;2023-02-28T02:40:32;-2.70;92.20
22173;DHT22;11252;50.596;17.648;2023-02-28T02:43:25;-2.70;92.20
22173;DHT22;11252;50.596;17.648;2023-02-28T02:46:00;-2.70;92.20
22173;DHT22;11252;50.596;17.648;2023-02-28T02:48:31;-2.80;92.20
22173;DHT22;11252;50.596;17.648;2023-02-28T02:51:05;-2.80;92.20
22173;DHT22;11252;50.596;17.648;2023-02-28T02:53:55;-2.80;92.20
22173;DHT22;11252;50.596;17.648;2023-02-28T02:56:28;-2.90;92.20
22173;DHT22;11252;50.596;17.648;2023-02-28T02:59:02;-2.90;92.20
22173;DHT22;11252;50.596;17.648;2023-02-28T03:01:31;-2.90;92.20
22173;DHT22;11252;50.596;17.648;2023-02-28T03:04:13;-3.00;92.20
22173;DHT22;11252;50.596;17.648;2023-02-28T03:06:43;-3.00;92.20
22173;DHT22;11252;50.596;17.648;2023-02-28T03:09:10;-3.00;92.20
22173;DHT22;11252;50.596;17.648;2023-02-28T03:11:38;-3.00;92.20
22173;DHT22;11252;50.596;17.648;2023-02-28T03:17:24;-3.10;92.20
22173;DHT22;11252;50.596;17.648;2023-02-28T03:20:07;-3.10;92.20
22173;DHT22;11252;50.596;17.648;2023-02-28T03:23:00;-3.20;92.20
22173;DHT22;11252;50.596;17.648;2023-02-28T03:25:33;-3.20;92.20
22173;DHT22;11252;50.596;17.648;2023-02-28T03:31:27;-3.20;92.20
22173;DHT22;11252;50.596;17.648;2023-02-28T03:34:12;-3.30;92.20
22173;DHT22;11252;50.596;17.648;2023-02-28T03:36:45;-3.30;92.20
22173;DHT22;11252;50.596;17.648;2023-02-28T03:39:24;-3.30;92.20
22173;DHT22;11252;50.596;17.648;2023-02-28T03:42:07;-3.40;92.20
22173;DHT22;11252;50.596;17.648;2023-02-28T03:44:57;-3.40;92.20
22173;DHT22;11252;50.596;17.648;2023-02-28T03:47:39;-3.40;92.20
22173;DHT22;11252;50.596;17.648;2023-02-28T03:52:48;-3.50;92.20
22173;DHT22;11252;50.596;17.648;2023-02-28T03:55:18;-3.50;92.20
22173;DHT22;11252;50.596;17.648;2023-02-28T04:00:42;-3.50;92.20
22173;DHT22;11252;50.596;17.648;2023-02-28T04:03:12;-3.60;92.20
22173;DHT22;11252;50.596;17.648;2023-02-28T04:05:55;-3.60;92.20
22173;DHT22;11252;50.596;17.648;2023-02-28T04:08:23;-3.60;92.20
22173;DHT22;11252;50.596;17.648;2023-02-28T04:11:04;-3.60;92.20
22173;DHT22;11252;50.596;17.648;2023-02-28T04:13:33;-3.70;92.20
22173;DHT22;11252;50.596;17.648;2023-02-28T04:16:01;-3.70;92.20
22173;DHT22;11252;50.596;17.648;2023-02-28T04:18:28;-3.70;92.20
22173;DHT22;11252;50.596;17.648;2023-02-28T04:21:00;-3.70;92.20
22173;DHT22;11252;50.596;17.648;2023-02-28T04:23:27;-3.80;92.20
22173;DHT22;11252;50.596;17.648;2023-02-28T04:25:55;-3.80;92.20
22173;DHT22;11252;50.596;17.648;2023-02-28T04:28:23;-3.80;92.20
22173;DHT22;11252;50.596;17.648;2023-02-28T04:30:56;-3.80;92.20
22173;DHT22;11252;50.596;17.648;2023-02-28T04:33:23;-3.80;92.20
22173;DHT22;11252;50.596;17.648;2023-02-28T04:36:05;-3.90;92.20
22173;DHT22;11252;50.596;17.648;2023-02-28T04:38:36;-3.90;92.20
22173;DHT22;11252;50.596;17.648;2023-02-28T04:41:04;-3.90;92.20
22173;DHT22;11252;50.596;17.648;2023-02-28T04:43:32;-3.90;92.20
22173;DHT22;11252;50.596;17.648;2023-02-28T04:46:03;-3.90;92.20
22173;DHT22;11252;50.596;17.648;2023-02-28T04:48:34;-4.00;92.20
22173;DHT22;11252;50.596;17.648;2023-02-28T04:51:07;-4.00;92.20
22173;DHT22;11252;50.596;17.648;2023-02-28T04:53:37;-4.00;92.20
22173;DHT22;11252;50.596;17.648;2023-02-28T04:56:06;-4.00;92.20
22173;DHT22;11252;50.596;17.648;2023-02-28T04:58:34;-4.10;92.20
22173;DHT22;11252;50.596;17.648;2023-02-28T05:01:07;-4.10;92.20
22173;DHT22;11252;50.596;17.648;2023-02-28T05:03:39;-4.10;92.20
22173;DHT22;11252;50.596;17.648;2023-02-28T05:06:11;-4.10;92.20
22173;DHT22;11252;50.596;17.648;2023-02-28T05:08:40;-4.20;92.20
22173;DHT22;11252;50.596;17.648;2023-02-28T05:13:53;-4.20;92.20
22173;DHT22;11252;50.596;17.648;2023-02-28T05:16:21;-4.20;92.20
22173;DHT22;11252;50.596;17.648;2023-02-28T05:18:48;-4.20;92.20
22173;DHT22;11252;50.596;17.648;2023-02-28T05:21:30;-4.20;92.20
22173;DHT22;11252;50.596;17.648;2023-02-28T05:24:01;-4.30;92.20
22173;DHT22;11252;50.596;17.648;2023-02-28T05:26:30;-4.30;92.20
22173;DHT22;11252;50.596;17.648;2023-02-28T05:28:58;-4.30;92.20
22173;DHT22;11252;50.596;17.648;2023-02-28T05:31:27;-4.30;92.20
22173;DHT22;11252;50.596;17.648;2023-02-28T05:33:55;-4.30;92.20
22173;DHT22;11252;50.596;17.648;2023-02-28T05:36:23;-4.30;92.20
22173;DHT22;11252;50.596;17.648;2023-02-28T05:38:51;-4.30;92.20
22173;DHT22;11252;50.596;17.648;2023-02-28T05:41:20;-4.40;92.20
22173;DHT22;11252;50.596;17.648;2023-02-28T05:43:48;-4.40;92.20
22173;DHT22;11252;50.596;17.648;2023-02-28T05:46:15;-4.40;92.20
22173;DHT22;11252;50.596;17.648;2023-02-28T05:48:46;-4.40;92.20
22173;DHT22;11252;50.596;17.648;2023-02-28T05:51:14;-4.40;92.20
22173;DHT22;11252;50.596;17.648;2023-02-28T05:53:41;-4.40;92.20
22173;DHT22;11252;50.596;17.648;2023-02-28T05:56:09;-4.40;92.20
22173;DHT22;11252;50.596;17.648;2023-02-28T05:58:36;-4.40;92.20
22173;DHT22;11252;50.596;17.648;2023-02-28T06:01:34;-4.40;92.20
22173;DHT22;11252;50.596;17.648;2023-02-28T06:04:04;-4.40;92.20
22173;DHT22;11252;50.596;17.648;2023-02-28T06:06:32;-4.40;92.20
22173;DHT22;11252;50.596;17.648;2023-02-28T06:09:05;-4.40;92.20
22173;DHT22;11252;50.596;17.648;2023-02-28T06:11:33;-4.30;92.20
22173;DHT22;11252;50.596;17.648;2023-02-28T06:14:02;-4.30;92.20
22173;DHT22;11252;50.596;17.648;2023-02-28T06:16:32;-4.20;92.20
22173;DHT22;11252;50.596;17.648;2023-02-28T06:19:02;-4.10;92.20
22173;DHT22;11252;50.596;17.648;2023-02-28T06:21:31;-4.00;92.20
22173;DHT22;11252;50.596;17.648;2023-02-28T06:23:59;-3.90;92.20
22173;DHT22;11252;50.596;17.648;2023-02-28T06:26:27;-3.90;92.20
22173;DHT22;11252;50.596;17.648;2023-02-28T06:28:55;-3.80;92.20
22173;DHT22;11252;50.596;17.648;2023-02-28T06:31:22;-3.70;92.20
22173;DHT22;11252;50.596;17.648;2023-02-28T06:33:51;-3.60;92.20
22173;DHT22;11252;50.596;17.648;2023-02-28T06:36:19;-3.40;92.20
22173;DHT22;11252;50.596;17.648;2023-02-28T06:38:47;-3.30;92.20
22173;DHT22;11252;50.596;17.648;2023-02-28T06:41:18;-3.10;92.20
22173;DHT22;11252;50.596;17.648;2023-02-28T06:43:45;-2.90;92.20
22173;DHT22;11252;50.596;17.648;2023-02-28T06:46:14;-2.80;92.20
22173;DHT22;11252;50.596;17.648;2023-02-28T06:48:44;-2.80;92.20
22173;DHT22;11252;50.596;17.648;2023-02-28T06:51:14;-2.70;92.20
22173;DHT22;11252;50.596;17.648;2023-02-28T06:53:42;-2.70;92.20
22173;DHT22;11252;50.596;17.648;2023-02-28T06:56:15;-2.60;92.20
22173;DHT22;11252;50.596;17.648;2023-02-28T06:58:46;-2.50;92.20
22173;DHT22;11252;50.596;17.648;2023-02-28T07:01:14;-2.50;92.20
22173;DHT22;11252;50.596;17.648;2023-02-28T07:03:42;-2.40;92.20
22173;DHT22;11252;50.596;17.648;2023-02-28T07:06:10;-2.40;92.20
22173;DHT22;11252;50.596;17.648;2023-02-28T07:08:37;-2.30;92.20
22173;DHT22;11252;50.596;17.648;2023-02-28T07:11:07;-2.30;92.20
22173;DHT22;11252;50.596;17.648;2023-02-28T07:13:34;-2.20;92.20
22173;DHT22;11252;50.596;17.648;2023-02-28T07:16:04;-2.20;92.20
22173;DHT22;11252;50.596;17.648;2023-02-28T07:18:32;-2.10;92.20
22173;DHT22;11252;50.596;17.648;2023-02-28T07:21:05;-2.10;92.20
22173;DHT22;11252;50.596;17.648;2023-02-28T07:23:33;-2.00;92.20
22173;DHT22;11252;50.596;17.648;2023-02-28T07:26:01;-2.00;92.20
22173;DHT22;11252;50.596;17.648;2023-02-28T07:28:28;-1.90;92.20
22173;DHT22;11252;50.596;17.648;2023-02-28T07:30:56;-1.80;92.20
22173;DHT22;11252;50.596;17.648;2023-02-28T07:33:24;-1.70;92.20
22173;DHT22;11252;50.596;17.648;2023-02-28T07:35:51;-1.70;92.20
22173;DHT22;11252;50.596;17.648;2023-02-28T07:38:18;-1.60;92.20
22173;DHT22;11252;50.596;17.648;2023-02-28T07:40:46;-1.50;92.20
22173;DHT22;11252;50.596;17.648;2023-02-28T07:43:13;-1.50;92.20
22173;DHT22;11252;50.596;17.648;2023-02-28T07:45:40;-1.40;92.20
22173;DHT22;11252;50.596;17.648;2023-02-28T07:48:08;-1.30;92.20
22173;DHT22;11252;50.596;17.648;2023-02-28T07:50:37;-1.20;92.20
22173;DHT22;11252;50.596;17.648;2023-02-28T07:53:04;-1.10;92.20
22173;DHT22;11252;50.596;17.648;2023-02-28T07:55:32;-1.10;92.20
22173;DHT22;11252;50.596;17.648;2023-02-28T07:58:00;-0.90;92.20
22173;DHT22;11252;50.596;17.648;2023-02-28T08:00:27;-0.80;92.20
22173;DHT22;11252;50.596;17.648;2023-02-28T08:02:56;-0.70;92.20
22173;DHT22;11252;50.596;17.648;2023-02-28T08:05:23;-0.50;92.20
22173;DHT22;11252;50.596;17.648;2023-02-28T08:07:50;-0.40;92.20
22173;DHT22;11252;50.596;17.648;2023-02-28T08:10:18;-0.20;92.20
22173;DHT22;11252;50.596;17.648;2023-02-28T08:12:45;-0.10;92.20
22173;DHT22;11252;50.596;17.648;2023-02-28T08:15:13;0.00;91.30
22173;DHT22;11252;50.596;17.648;2023-02-28T08:17:40;0.10;90.70
22173;DHT22;11252;50.596;17.648;2023-02-28T08:20:08;0.10;91.00
22173;DHT22;11252;50.596;17.648;2023-02-28T08:22:37;0.20;90.20
22173;DHT22;11252;50.596;17.648;2023-02-28T08:25:05;0.30;89.00
22173;DHT22;11252;50.596;17.648;2023-02-28T08:27:35;0.40;87.50
22173;DHT22;11252;50.596;17.648;2023-02-28T08:30:03;0.40;88.60
22173;DHT22;11252;50.596;17.648;2023-02-28T08:32:32;0.60;87.40
22173;DHT22;11252;50.596;17.648;2023-02-28T08:35:00;0.70;86.40
22173;DHT22;11252;50.596;17.648;2023-02-28T08:37:28;0.90;85.30
22173;DHT22;11252;50.596;17.648;2023-02-28T08:39:56;1.40;85.70
22173;DHT22;11252;50.596;17.648;2023-02-28T08:42:24;1.90;85.60
22173;DHT22;11252;50.596;17.648;2023-02-28T08:44:51;2.40;83.90
22173;DHT22;11252;50.596;17.648;2023-02-28T08:47:19;2.90;81.30
22173;DHT22;11252;50.596;17.648;2023-02-28T08:49:46;3.40;79.50
22173;DHT22;11252;50.596;17.648;2023-02-28T08:52:13;3.60;77.60
22173;DHT22;11252;50.596;17.648;2023-02-28T08:54:42;3.70;80.50
22173;DHT22;11252;50.596;17.648;2023-02-28T08:57:09;4.30;78.00
22173;DHT22;11252;50.596;17.648;2023-02-28T08:59:36;4.70;76.50
22173;DHT22;11252;50.596;17.648;2023-02-28T09:02:04;5.00;80.80
22173;DHT22;11252;50.596;17.648;2023-02-28T09:04:31;5.40;77.90
22173;DHT22;11252;50.596;17.648;2023-02-28T09:06:58;5.80;78.20
22173;DHT22;11252;50.596;17.648;2023-02-28T09:09:26;6.30;77.00
22173;DHT22;11252;50.596;17.648;2023-02-28T09:11:55;6.70;74.80
22173;DHT22;11252;50.596;17.648;2023-02-28T09:14:23;7.10;72.70
22173;DHT22;11252;50.596;17.648;2023-02-28T09:16:51;7.40;73.30
22173;DHT22;11252;50.596;17.648;2023-02-28T09:19:18;7.70;69.00
22173;DHT22;11252;50.596;17.648;2023-02-28T09:21:45;7.90;69.80
22173;DHT22;11252;50.596;17.648;2023-02-28T09:24:13;8.20;70.00
22173;DHT22;11252;50.596;17.648;2023-02-28T09:26:42;8.70;69.80
22173;DHT22;11252;50.596;17.648;2023-02-28T09:29:29;9.10;68.60
22173;DHT22;11252;50.596;17.648;2023-02-28T09:31:57;9.30;67.20
22173;DHT22;11252;50.596;17.648;2023-02-28T09:34:28;9.60;66.90
22173;DHT22;11252;50.596;17.648;2023-02-28T09:36:57;9.90;67.90
22173;DHT22;11252;50.596;17.648;2023-02-28T09:39:25;10.40;65.00
22173;DHT22;11252;50.596;17.648;2023-02-28T09:41:54;10.50;64.20
22173;DHT22;11252;50.596;17.648;2023-02-28T09:44:33;10.80;65.30
22173;DHT22;11252;50.596;17.648;2023-02-28T09:50:22;10.70;61.20
22173;DHT22;11252;50.596;17.648;2023-02-28T09:52:55;11.50;60.40
22173;DHT22;11252;50.596;17.648;2023-02-28T10:01:30;11.60;59.00
22173;DHT22;11252;50.596;17.648;2023-02-28T10:04:16;11.90;58.90
22173;DHT22;11252;50.596;17.648;2023-02-28T10:06:51;11.90;57.20
22173;DHT22;11252;50.596;17.648;2023-02-28T10:09:26;12.50;59.40
22173;DHT22;11252;50.596;17.648;2023-02-28T10:12:03;12.80;58.80
22173;DHT22;11252;50.596;17.648;2023-02-28T10:14:34;13.60;57.10
22173;DHT22;11252;50.596;17.648;2023-02-28T10:17:12;14.00;57.70
22173;DHT22;11252;50.596;17.648;2023-02-28T10:19:43;14.60;56.50
22173;DHT22;11252;50.596;17.648;2023-02-28T10:22:17;14.00;55.00
22173;DHT22;11252;50.596;17.648;2023-02-28T10:24:50;14.80;53.70
22173;DHT22;11252;50.596;17.648;2023-02-28T10:27:25;14.80;51.20
22173;DHT22;11252;50.596;17.648;2023-02-28T10:29:59;14.40;51.70
22173;DHT22;11252;50.596;17.648;2023-02-28T10:32:31;14.10;52.30
22173;DHT22;11252;50.596;17.648;2023-02-28T10:37:32;14.80;51.40
22173;DHT22;11252;50.596;17.648;2023-02-28T10:40:06;14.90;51.30
22173;DHT22;11252;50.596;17.648;2023-02-28T10:42:35;15.20;51.40
22173;DHT22;11252;50.596;17.648;2023-02-28T10:45:13;15.20;49.90
22173;DHT22;11252;50.596;17.648;2023-02-28T10:47:56;15.20;49.70
22173;DHT22;11252;50.596;17.648;2023-02-28T10:53:30;15.40;51.50
22173;DHT22;11252;50.596;17.648;2023-02-28T10:58:59;15.20;50.50
22173;DHT22;11252;50.596;17.648;2023-02-28T11:01:43;15.50;50.80
22173;DHT22;11252;50.596;17.648;2023-02-28T11:04:33;16.00;50.50
22173;DHT22;11252;50.596;17.648;2023-02-28T11:07:21;15.80;52.90
22173;DHT22;11252;50.596;17.648;2023-02-28T11:09:53;16.20;50.00
22173;DHT22;11252;50.596;17.648;2023-02-28T11:12:38;15.90;49.50
22173;DHT22;11252;50.596;17.648;2023-02-28T11:15:34;15.80;50.80
22173;DHT22;11252;50.596;17.648;2023-02-28T11:20:40;15.00;50.50
22173;DHT22;11252;50.596;17.648;2023-02-28T11:23:12;14.40;51.50
22173;DHT22;11252;50.596;17.648;2023-02-28T11:25:54;13.80;52.20
22173;DHT22;11252;50.596;17.648;2023-02-28T11:28:29;13.00;53.00
22173;DHT22;11252;50.596;17.648;2023-02-28T11:33:48;11.60;58.40
22173;DHT22;11252;50.596;17.648;2023-02-28T11:36:23;11.50;58.20
22173;DHT22;11252;50.596;17.648;2023-02-28T11:39:09;11.20;59.50
22173;DHT22;11252;50.596;17.648;2023-02-28T11:41:56;11.20;59.50
22173;DHT22;11252;50.596;17.648;2023-02-28T11:50:26;12.00;58.70
22173;DHT22;11252;50.596;17.648;2023-02-28T11:56:14;12.00;57.20
22173;DHT22;11252;50.596;17.648;2023-02-28T12:07:00;13.50;56.90
22173;DHT22;11252;50.596;17.648;2023-02-28T12:09:42;13.80;55.40
22173;DHT22;11252;50.596;17.648;2023-02-28T12:28:10;13.10;55.30
22173;DHT22;11252;50.596;17.648;2023-02-28T12:30:53;12.80;56.60
22173;DHT22;11252;50.596;17.648;2023-02-28T12:33:26;12.70;55.50
22173;DHT22;11252;50.596;17.648;2023-02-28T12:35:58;12.60;57.20
22173;DHT22;11252;50.596;17.648;2023-02-28T12:41:12;12.60;57.10
22173;DHT22;11252;50.596;17.648;2023-02-28T12:43:46;12.40;57.50
22173;DHT22;11252;50.596;17.648;2023-02-28T12:46:23;12.20;57.20
22173;DHT22;11252;50.596;17.648;2023-02-28T12:48:58;12.30;57.60
22173;DHT22;11252;50.596;17.648;2023-02-28T12:51:27;12.00;56.90
22173;DHT22;11252;50.596;17.648;2023-02-28T12:54:24;11.70;55.50
22173;DHT22;11252;50.596;17.648;2023-02-28T12:59:57;11.50;55.80
22173;DHT22;11252;50.596;17.648;2023-02-28T13:05:32;11.80;58.70
22173;DHT22;11252;50.596;17.648;2023-02-28T13:10:50;13.30;54.90
22173;DHT22;11252;50.596;17.648;2023-02-28T13:13:26;13.30;56.10
22173;DHT22;11252;50.596;17.648;2023-02-28T13:18:31;13.50;55.50
22173;DHT22;11252;50.596;17.648;2023-02-28T13:21:00;14.00;55.10
22173;DHT22;11252;50.596;17.648;2023-02-28T13:34:39;15.30;51.60
22173;DHT22;11252;50.596;17.648;2023-02-28T13:39:51;15.30;50.60
22173;DHT22;11252;50.596;17.648;2023-02-28T13:42:30;15.70;51.20
22173;DHT22;11252;50.596;17.648;2023-02-28T13:47:33;15.10;50.30
22173;DHT22;11252;50.596;17.648;2023-02-28T13:50:34;15.10;52.70
22173;DHT22;11252;50.596;17.648;2023-02-28T13:56:10;15.50;51.00
22173;DHT22;11252;50.596;17.648;2023-02-28T14:06:59;15.50;49.80
22173;DHT22;11252;50.596;17.648;2023-02-28T14:09:35;15.50;51.40
22173;DHT22;11252;50.596;17.648;2023-02-28T14:18:21;14.90;51.30
22173;DHT22;11252;50.596;17.648;2023-02-28T14:20:57;15.50;49.80
22173;DHT22;11252;50.596;17.648;2023-02-28T14:26:25;14.80;50.00
22173;DHT22;11252;50.596;17.648;2023-02-28T14:29:29;13.80;51.20
22173;DHT22;11252;50.596;17.648;2023-02-28T14:32:26;14.50;52.40
22173;DHT22;11252;50.596;17.648;2023-02-28T14:37:38;14.80;53.40
22173;DHT22;11252;50.596;17.648;2023-02-28T14:40:39;15.10;53.10
22173;DHT22;11252;50.596;17.648;2023-02-28T14:43:24;14.90;54.30
22173;DHT22;11252;50.596;17.648;2023-02-28T14:46:00;15.10;52.30
22173;DHT22;11252;50.596;17.648;2023-02-28T14:48:28;15.20;50.80
22173;DHT22;11252;50.596;17.648;2023-02-28T14:51:00;15.10;51.90
22173;DHT22;11252;50.596;17.648;2023-02-28T14:53:34;14.90;50.90
22173;DHT22;11252;50.596;17.648;2023-02-28T14:56:03;14.90;51.10
22173;DHT22;11252;50.596;17.648;2023-02-28T14:58:32;14.50;51.90
22173;DHT22;11252;50.596;17.648;2023-02-28T15:01:02;14.00;53.50
22173;DHT22;11252;50.596;17.648;2023-02-28T15:03:39;13.80;54.00
22173;DHT22;11252;50.596;17.648;2023-02-28T15:06:14;13.70;52.70
22173;DHT22;11252;50.596;17.648;2023-02-28T15:08:43;13.50;55.50
22173;DHT22;11252;50.596;17.648;2023-02-28T15:11:16;13.20;55.80
22173;DHT22;11252;50.596;17.648;2023-02-28T15:13:48;13.30;54.90
22173;DHT22;11252;50.596;17.648;2023-02-28T15:16:20;13.50;54.00
22173;DHT22;11252;50.596;17.648;2023-02-28T15:18:52;12.90;54.70
22173;DHT22;11252;50.596;17.648;2023-02-28T15:21:42;12.30;55.40
22173;DHT22;11252;50.596;17.648;2023-02-28T15:26:46;12.60;55.00
22173;DHT22;11252;50.596;17.648;2023-02-28T15:29:20;12.60;55.70
22173;DHT22;11252;50.596;17.648;2023-02-28T15:31:51;12.60;55.60
22173;DHT22;11252;50.596;17.648;2023-02-28T15:34:43;12.70;56.10
22173;DHT22;11252;50.596;17.648;2023-02-28T15:43:14;11.70;56.70
22173;DHT22;11252;50.596;17.648;2023-02-28T15:45:51;11.40;58.20
22173;DHT22;11252;50.596;17.648;2023-02-28T15:53:28;9.50;61.20
22173;DHT22;11252;50.596;17.648;2023-02-28T15:56:03;8.70;62.00
22173;DHT22;11252;50.596;17.648;2023-02-28T15:58:32;8.20;63.80
22173;DHT22;11252;50.596;17.648;2023-02-28T16:01:28;7.90;65.40
22173;DHT22;11252;50.596;17.648;2023-02-28T16:04:12;7.50;66.90
22173;DHT22;11252;50.596;17.648;2023-02-28T16:06:42;7.20;67.20
22173;DHT22;11252;50.596;17.648;2023-02-28T16:09:14;6.90;68.30
22173;DHT22;11252;50.596;17.648;2023-02-28T16:11:47;6.70;69.20
22173;DHT22;11252;50.596;17.648;2023-02-28T16:14:26;6.40;69.80
22173;DHT22;11252;50.596;17.648;2023-02-28T16:17:06;6.20;70.10
22173;DHT22;11252;50.596;17.648;2023-02-28T16:19:35;6.00;70.60
22173;DHT22;11252;50.596;17.648;2023-02-28T16:22:07;5.70;71.00
22173;DHT22;11252;50.596;17.648;2023-02-28T16:24:35;5.50;72.00
22173;DHT22;11252;50.596;17.648;2023-02-28T16:27:02;5.40;72.50
22173;DHT22;11252;50.596;17.648;2023-02-28T16:29:34;5.30;72.90
22173;DHT22;11252;50.596;17.648;2023-02-28T16:32:05;5.10;73.00
22173;DHT22;11252;50.596;17.648;2023-02-28T16:34:33;5.00;73.50
22173;DHT22;11252;50.596;17.648;2023-02-28T16:37:00;4.90;74.20
22173;DHT22;11252;50.596;17.648;2023-02-28T16:39:28;4.80;74.60
22173;DHT22;11252;50.596;17.648;2023-02-28T16:41:55;4.70;74.90
22173;DHT22;11252;50.596;17.648;2023-02-28T16:44:34;4.60;74.70
22173;DHT22;11252;50.596;17.648;2023-02-28T16:47:03;4.50;75.00
22173;DHT22;11252;50.596;17.648;2023-02-28T16:49:31;4.40;75.10
22173;DHT22;11252;50.596;17.648;2023-02-28T16:51:58;4.30;75.50
22173;DHT22;11252;50.596;17.648;2023-02-28T16:54:26;4.30;75.30
22173;DHT22;11252;50.596;17.648;2023-02-28T16:56:54;4.20;75.80
22173;DHT22;11252;50.596;17.648;2023-02-28T16:59:23;4.10;76.30
22173;DHT22;11252;50.596;17.648;2023-02-28T17:01:51;4.00;76.90
22173;DHT22;11252;50.596;17.648;2023-02-28T17:04:19;3.90;76.90
22173;DHT22;11252;50.596;17.648;2023-02-28T17:06:47;3.80;77.20
22173;DHT22;11252;50.596;17.648;2023-02-28T17:09:20;3.70;78.00
22173;DHT22;11252;50.596;17.648;2023-02-28T17:11:56;3.60;79.00
22173;DHT22;11252;50.596;17.648;2023-02-28T17:14:24;3.40;79.70
22173;DHT22;11252;50.596;17.648;2023-02-28T17:16:52;3.30;80.10
22173;DHT22;11252;50.596;17.648;2023-02-28T17:19:19;3.20;80.50
22173;DHT22;11252;50.596;17.648;2023-02-28T17:21:47;3.00;81.00
22173;DHT22;11252;50.596;17.648;2023-02-28T17:24:15;3.00;81.30
22173;DHT22;11252;50.596;17.648;2023-02-28T17:26:56;2.90;81.50
22173;DHT22;11252;50.596;17.648;2023-02-28T17:29:23;2.70;82.10
22173;DHT22;11252;50.596;17.648;2023-02-28T17:31:51;2.60;82.90
22173;DHT22;11252;50.596;17.648;2023-02-28T17:34:19;2.60;83.20
22173;DHT22;11252;50.596;17.648;2023-02-28T17:36:48;2.50;83.40
22173;DHT22;11252;50.596;17.648;2023-02-28T17:39:17;2.40;83.90
22173;DHT22;11252;50.596;17.648;2023-02-28T17:41:55;2.20;84.30
22173;DHT22;11252;50.596;17.648;2023-02-28T17:44:23;2.10;85.10
22173;DHT22;11252;50.596;17.648;2023-02-28T17:49:36;2.10;86.40
22173;DHT22;11252;50.596;17.648;2023-02-28T17:52:04;1.90;88.10
22173;DHT22;11252;50.596;17.648;2023-02-28T17:54:31;1.90;90.60
22173;DHT22;11252;50.596;17.648;2023-02-28T17:56:59;1.80;90.50
22173;DHT22;11252;50.596;17.648;2023-02-28T17:59:27;1.70;90.70
22173;DHT22;11252;50.596;17.648;2023-02-28T18:02:00;1.70;91.50
22173;DHT22;11252;50.596;17.648;2023-02-28T18:04:29;1.70;91.60
22173;DHT22;11252;50.596;17.648;2023-02-28T18:06:56;1.60;91.70
22173;DHT22;11252;50.596;17.648;2023-02-28T18:09:27;1.50;91.80
22173;DHT22;11252;50.596;17.648;2023-02-28T18:11:55;1.40;92.20
22173;DHT22;11252;50.596;17.648;2023-02-28T18:14:24;1.40;92.20
22173;DHT22;11252;50.596;17.648;2023-02-28T18:16:53;1.40;92.20
22173;DHT22;11252;50.596;17.648;2023-02-28T18:19:22;1.30;92.20